sensor_id;sensor_type;location;lat;lon;timestamp;P1;durP1;ratioP1;P2;durP2;ratioP2
26906;SDS011;14472;56.880;16.658;2024-03-02T00:02:12;28.90;;;13.70;;
26906;SDS011;14472;56.880;16.658;2024-03-02T00:04:40;27.80;;;13.33;;
26906;SDS011;14472;56.880;16.658;2024-03-02T00:07:10;37.10;;;15.80;;
26906;SDS011;14472;56.880;16.658;2024-03-02T00:09:39;24.57;;;12.70;;
26906;SDS011;14472;56.880;16.658;2024-03-02T00:12:04;28.60;;;12.90;;
26906;SDS011;14472;56.880;16.658;2024-03-02T00:14:30;27.53;;;12.73;;
26906;SDS011;14472;56.880;16.658;2024-03-02T00:16:56;33.43;;;14.17;;
26906;SDS011;14472;56.880;16.658;2024-03-02T00:19:22;27.53;;;13.70;;
26906;SDS011;14472;56.880;16.658;2024-03-02T00:21:48;30.93;;;12.97;;
26906;SDS011;14472;56.880;16.658;2024-03-02T00:24:21;33.00;;;13.87;;
26906;SDS011;14472;56.880;16.658;2024-03-02T00:26:56;27.53;;;13.57;;
26906;SDS011;14472;56.880;16.658;2024-03-02T00:29:22;29.13;;;14.00;;
26906;SDS011;14472;56.880;16.658;2024-03-02T00:31:47;29.43;;;13.07;;
26906;SDS011;14472;56.880;16.658;2024-03-02T00:34:13;36.30;;;13.43;;
26906;SDS011;14472;56.880;16.658;2024-03-02T00:36:41;38.40;;;15.70;;
26906;SDS011;14472;56.880;16.658;2024-03-02T00:39:07;32.73;;;13.57;;
26906;SDS011;14472;56.880;16.658;2024-03-02T00:41:33;25.50;;;12.80;;
26906;SDS011;14472;56.880;16.658;2024-03-02T00:44:02;34.53;;;14.07;;
26906;SDS011;14472;56.880;16.658;2024-03-02T00:46:33;27.90;;;13.80;;
26906;SDS011;14472;56.880;16.658;2024-03-02T00:49:00;31.27;;;13.50;;
26906;SDS011;14472;56.880;16.658;2024-03-02T00:51:29;28.97;;;14.00;;
26906;SDS011;14472;56.880;16.658;2024-03-02T00:53:58;33.87;;;13.63;;
26906;SDS011;14472;56.880;16.658;2024-03-02T00:56:29;29.33;;;14.17;;
26906;SDS011;14472;56.880;16.658;2024-03-02T00:58:55;33.50;;;13.03;;
26906;SDS011;14472;56.880;16.658;2024-03-02T01:01:20;30.10;;;13.47;;
26906;SDS011;14472;56.880;16.658;2024-03-02T01:03:46;28.53;;;13.27;;
26906;SDS011;14472;56.880;16.658;2024-03-02T01:06:12;16.43;;;9.23;;
26906;SDS011;14472;56.880;16.658;2024-03-02T01:08:38;28.33;;;11.93;;
26906;SDS011;14472;56.880;16.658;2024-03-02T01:11:04;16.27;;;8.77;;
26906;SDS011;14472;56.880;16.658;2024-03-02T01:13:30;15.30;;;8.73;;
26906;SDS011;14472;56.880;16.658;2024-03-02T01:15:56;15.97;;;8.43;;
26906;SDS011;14472;56.880;16.658;2024-03-02T01:18:22;17.87;;;8.87;;
26906;SDS011;14472;56.880;16.658;2024-03-02T01:20:48;11.77;;;6.90;;
26906;SDS011;14472;56.880;16.658;2024-03-02T01:23:18;13.87;;;6.80;;
26906;SDS011;14472;56.880;16.658;2024-03-02T01:25:47;11.33;;;6.93;;
26906;SDS011;14472;56.880;16.658;2024-03-02T01:28:13;12.53;;;6.53;;
26906;SDS011;14472;56.880;16.658;2024-03-02T01:30:39;9.70;;;6.90;;
26906;SDS011;14472;56.880;16.658;2024-03-02T01:33:05;14.10;;;6.83;;
26906;SDS011;14472;56.880;16.658;2024-03-02T01:35:31;21.53;;;11.73;;
26906;SDS011;14472;56.880;16.658;2024-03-02T01:37:57;19.00;;;10.23;;
26906;SDS011;14472;56.880;16.658;2024-03-02T01:40:23;17.20;;;8.30;;
26906;SDS011;14472;56.880;16.658;2024-03-02T01:42:53;15.77;;;7.83;;
26906;SDS011;14472;56.880;16.658;2024-03-02T01:45:24;21.37;;;7.67;;
26906;SDS011;14472;56.880;16.658;2024-03-02T01:47:50;17.43;;;8.67;;
26906;SDS011;14472;56.880;16.658;2024-03-02T01:50:16;23.00;;;12.07;;
26906;SDS011;14472;56.880;16.658;2024-03-02T01:52:50;13.63;;;8.13;;
26906;SDS011;14472;56.880;16.658;2024-03-02T01:55:16;18.93;;;8.70;;
26906;SDS011;14472;56.880;16.658;2024-03-02T01:57:42;12.50;;;7.73;;
26906;SDS011;14472;56.880;16.658;2024-03-02T02:00:10;13.80;;;8.20;;
26906;SDS011;14472;56.880;16.658;2024-03-02T02:02:36;15.13;;;7.90;;
26906;SDS011;14472;56.880;16.658;2024-03-02T02:05:02;11.63;;;6.70;;
26906;SDS011;14472;56.880;16.658;2024-03-02T02:07:28;18.20;;;8.40;;
26906;SDS011;14472;56.880;16.658;2024-03-02T02:09:54;15.57;;;8.03;;
26906;SDS011;14472;56.880;16.658;2024-03-02T02:12:20;15.40;;;8.30;;
26906;SDS011;14472;56.880;16.658;2024-03-02T02:14:48;14.83;;;8.43;;
26906;SDS011;14472;56.880;16.658;2024-03-02T02:17:15;21.23;;;11.03;;
26906;SDS011;14472;56.880;16.658;2024-03-02T02:19:41;13.83;;;7.27;;
26906;SDS011;14472;56.880;16.658;2024-03-02T02:22:07;22.23;;;10.03;;
26906;SDS011;14472;56.880;16.658;2024-03-02T02:24:33;17.90;;;9.83;;
26906;SDS011;14472;56.880;16.658;2024-03-02T02:26:59;18.70;;;10.33;;
26906;SDS011;14472;56.880;16.658;2024-03-02T02:29:25;19.93;;;11.23;;
26906;SDS011;14472;56.880;16.658;2024-03-02T02:31:50;20.70;;;10.33;;
26906;SDS011;14472;56.880;16.658;2024-03-02T02:34:16;22.70;;;10.77;;
26906;SDS011;14472;56.880;16.658;2024-03-02T02:36:42;17.50;;;10.00;;
26906;SDS011;14472;56.880;16.658;2024-03-02T02:39:10;21.47;;;10.43;;
26906;SDS011;14472;56.880;16.658;2024-03-02T02:41:38;19.60;;;9.77;;
26906;SDS011;14472;56.880;16.658;2024-03-02T02:44:04;22.70;;;10.93;;
26906;SDS011;14472;56.880;16.658;2024-03-02T02:46:30;18.10;;;9.80;;
26906;SDS011;14472;56.880;16.658;2024-03-02T02:48:56;23.77;;;10.10;;
26906;SDS011;14472;56.880;16.658;2024-03-02T02:51:21;18.67;;;9.80;;
26906;SDS011;14472;56.880;16.658;2024-03-02T02:53:47;23.20;;;10.70;;
26906;SDS011;14472;56.880;16.658;2024-03-02T02:56:13;24.83;;;11.30;;
26906;SDS011;14472;56.880;16.658;2024-03-02T02:58:39;20.87;;;9.70;;
26906;SDS011;14472;56.880;16.658;2024-03-02T03:01:06;19.53;;;10.37;;
26906;SDS011;14472;56.880;16.658;2024-03-02T03:03:32;20.17;;;10.47;;
26906;SDS011;14472;56.880;16.658;2024-03-02T03:05:58;19.97;;;11.33;;
26906;SDS011;14472;56.880;16.658;2024-03-02T03:08:24;18.97;;;9.83;;
26906;SDS011;14472;56.880;16.658;2024-03-02T03:10:50;22.17;;;11.27;;
26906;SDS011;14472;56.880;16.658;2024-03-02T03:13:15;25.37;;;9.80;;
26906;SDS011;14472;56.880;16.658;2024-03-02T03:15:41;21.73;;;10.20;;
26906;SDS011;14472;56.880;16.658;2024-03-02T03:18:07;22.80;;;9.77;;
26906;SDS011;14472;56.880;16.658;2024-03-02T03:20:35;24.90;;;10.57;;
26906;SDS011;14472;56.880;16.658;2024-03-02T03:23:01;19.63;;;10.27;;
26906;SDS011;14472;56.880;16.658;2024-03-02T03:25:28;22.77;;;11.47;;
26906;SDS011;14472;56.880;16.658;2024-03-02T03:27:55;20.80;;;10.30;;
26906;SDS011;14472;56.880;16.658;2024-03-02T03:30:20;25.23;;;11.63;;
26906;SDS011;14472;56.880;16.658;2024-03-02T03:32:46;23.70;;;10.73;;
26906;SDS011;14472;56.880;16.658;2024-03-02T03:35:13;22.53;;;10.27;;
26906;SDS011;14472;56.880;16.658;2024-03-02T03:37:40;28.13;;;11.00;;
26906;SDS011;14472;56.880;16.658;2024-03-02T03:40:06;22.33;;;10.97;;
26906;SDS011;14472;56.880;16.658;2024-03-02T03:42:37;22.80;;;10.53;;
26906;SDS011;14472;56.880;16.658;2024-03-02T03:45:04;22.40;;;11.17;;
26906;SDS011;14472;56.880;16.658;2024-03-02T03:47:31;21.00;;;11.10;;
26906;SDS011;14472;56.880;16.658;2024-03-02T03:49:57;26.90;;;10.63;;
26906;SDS011;14472;56.880;16.658;2024-03-02T03:52:23;29.40;;;12.00;;
26906;SDS011;14472;56.880;16.658;2024-03-02T03:54:49;19.40;;;10.93;;
26906;SDS011;14472;56.880;16.658;2024-03-02T03:57:15;18.80;;;10.70;;
26906;SDS011;14472;56.880;16.658;2024-03-02T03:59:41;27.90;;;12.17;;
26906;SDS011;14472;56.880;16.658;2024-03-02T04:02:07;23.17;;;10.33;;
26906;SDS011;14472;56.880;16.658;2024-03-02T04:04:34;28.30;;;12.17;;
26906;SDS011;14472;56.880;16.658;2024-03-02T04:07:00;25.83;;;11.20;;
26906;SDS011;14472;56.880;16.658;2024-03-02T04:09:25;23.57;;;11.30;;
26906;SDS011;14472;56.880;16.658;2024-03-02T04:11:52;24.90;;;11.53;;
26906;SDS011;14472;56.880;16.658;2024-03-02T04:14:18;22.67;;;11.60;;
26906;SDS011;14472;56.880;16.658;2024-03-02T04:16:43;19.47;;;10.83;;
26906;SDS011;14472;56.880;16.658;2024-03-02T04:19:09;27.67;;;11.63;;
26906;SDS011;14472;56.880;16.658;2024-03-02T04:21:35;22.83;;;11.80;;
26906;SDS011;14472;56.880;16.658;2024-03-02T04:24:00;27.60;;;11.67;;
26906;SDS011;14472;56.880;16.658;2024-03-02T04:26:26;22.57;;;11.87;;
26906;SDS011;14472;56.880;16.658;2024-03-02T04:28:52;26.53;;;11.87;;
26906;SDS011;14472;56.880;16.658;2024-03-02T04:31:19;24.57;;;11.73;;
26906;SDS011;14472;56.880;16.658;2024-03-02T04:33:45;25.20;;;11.23;;
26906;SDS011;14472;56.880;16.658;2024-03-02T04:36:11;25.93;;;12.23;;
26906;SDS011;14472;56.880;16.658;2024-03-02T04:38:37;23.90;;;11.63;;
26906;SDS011;14472;56.880;16.658;2024-03-02T04:41:06;23.83;;;12.70;;
26906;SDS011;14472;56.880;16.658;2024-03-02T04:43:32;26.20;;;11.80;;
26906;SDS011;14472;56.880;16.658;2024-03-02T04:45:59;31.03;;;12.03;;
26906;SDS011;14472;56.880;16.658;2024-03-02T04:48:24;23.63;;;11.97;;
26906;SDS011;14472;56.880;16.658;2024-03-02T04:50:50;23.37;;;12.27;;
26906;SDS011;14472;56.880;16.658;2024-03-02T04:53:16;24.30;;;11.87;;
26906;SDS011;14472;56.880;16.658;2024-03-02T04:55:42;36.63;;;13.20;;
26906;SDS011;14472;56.880;16.658;2024-03-02T04:58:07;27.57;;;11.30;;
26906;SDS011;14472;56.880;16.658;2024-03-02T05:00:33;23.33;;;11.87;;
26906;SDS011;14472;56.880;16.658;2024-03-02T05:03:00;25.30;;;12.23;;
26906;SDS011;14472;56.880;16.658;2024-03-02T05:05:26;27.00;;;12.87;;
26906;SDS011;14472;56.880;16.658;2024-03-02T05:07:51;26.70;;;12.83;;
26906;SDS011;14472;56.880;16.658;2024-03-02T05:10:17;23.90;;;12.40;;
26906;SDS011;14472;56.880;16.658;2024-03-02T05:12:43;26.93;;;12.80;;
26906;SDS011;14472;56.880;16.658;2024-03-02T05:15:13;26.80;;;12.97;;
26906;SDS011;14472;56.880;16.658;2024-03-02T05:17:39;22.70;;;11.77;;
26906;SDS011;14472;56.880;16.658;2024-03-02T05:20:08;29.63;;;13.40;;
26906;SDS011;14472;56.880;16.658;2024-03-02T05:22:34;28.77;;;12.13;;
26906;SDS011;14472;56.880;16.658;2024-03-02T05:25:01;28.03;;;13.00;;
26906;SDS011;14472;56.880;16.658;2024-03-02T05:27:27;26.13;;;12.23;;
26906;SDS011;14472;56.880;16.658;2024-03-02T05:29:53;29.23;;;12.30;;
26906;SDS011;14472;56.880;16.658;2024-03-02T05:32:19;28.77;;;13.33;;
26906;SDS011;14472;56.880;16.658;2024-03-02T05:34:44;36.37;;;14.43;;
26906;SDS011;14472;56.880;16.658;2024-03-02T05:37:10;26.30;;;12.43;;
26906;SDS011;14472;56.880;16.658;2024-03-02T05:39:36;26.90;;;13.20;;
26906;SDS011;14472;56.880;16.658;2024-03-02T05:42:02;26.67;;;12.10;;
26906;SDS011;14472;56.880;16.658;2024-03-02T05:44:28;29.67;;;13.27;;
26906;SDS011;14472;56.880;16.658;2024-03-02T05:46:54;26.87;;;13.83;;
26906;SDS011;14472;56.880;16.658;2024-03-02T05:49:20;33.03;;;14.30;;
26906;SDS011;14472;56.880;16.658;2024-03-02T05:51:45;25.47;;;13.63;;
26906;SDS011;14472;56.880;16.658;2024-03-02T05:54:11;30.67;;;13.77;;
26906;SDS011;14472;56.880;16.658;2024-03-02T05:56:37;27.43;;;13.00;;
26906;SDS011;14472;56.880;16.658;2024-03-02T05:59:03;27.53;;;14.97;;
26906;SDS011;14472;56.880;16.658;2024-03-02T06:01:44;30.70;;;14.30;;
26906;SDS011;14472;56.880;16.658;2024-03-02T06:04:17;26.97;;;12.73;;
26906;SDS011;14472;56.880;16.658;2024-03-02T06:06:43;26.03;;;13.73;;
26906;SDS011;14472;56.880;16.658;2024-03-02T06:09:09;29.97;;;14.53;;
26906;SDS011;14472;56.880;16.658;2024-03-02T06:11:37;29.97;;;13.27;;
26906;SDS011;14472;56.880;16.658;2024-03-02T06:14:05;33.53;;;14.50;;
26906;SDS011;14472;56.880;16.658;2024-03-02T06:16:33;21.73;;;10.77;;
26906;SDS011;14472;56.880;16.658;2024-03-02T06:19:00;23.93;;;13.83;;
26906;SDS011;14472;56.880;16.658;2024-03-02T06:21:26;24.97;;;12.80;;
26906;SDS011;14472;56.880;16.658;2024-03-02T06:23:52;28.83;;;13.67;;
26906;SDS011;14472;56.880;16.658;2024-03-02T06:26:18;27.13;;;14.10;;
26906;SDS011;14472;56.880;16.658;2024-03-02T06:28:44;20.57;;;11.10;;
26906;SDS011;14472;56.880;16.658;2024-03-02T06:31:10;33.03;;;15.03;;
26906;SDS011;14472;56.880;16.658;2024-03-02T06:33:36;26.30;;;14.17;;
26906;SDS011;14472;56.880;16.658;2024-03-02T06:36:02;29.20;;;13.20;;
26906;SDS011;14472;56.880;16.658;2024-03-02T06:38:28;31.57;;;15.23;;
26906;SDS011;14472;56.880;16.658;2024-03-02T06:40:54;27.37;;;12.33;;
26906;SDS011;14472;56.880;16.658;2024-03-02T06:43:22;33.73;;;15.50;;
26906;SDS011;14472;56.880;16.658;2024-03-02T06:45:48;32.17;;;15.73;;
26906;SDS011;14472;56.880;16.658;2024-03-02T06:48:15;26.83;;;13.90;;
26906;SDS011;14472;56.880;16.658;2024-03-02T06:50:45;24.30;;;12.97;;
26906;SDS011;14472;56.880;16.658;2024-03-02T06:53:14;23.93;;;11.97;;
26906;SDS011;14472;56.880;16.658;2024-03-02T06:55:44;34.97;;;14.57;;
26906;SDS011;14472;56.880;16.658;2024-03-02T06:58:11;30.53;;;14.80;;
26906;SDS011;14472;56.880;16.658;2024-03-02T07:00:37;28.63;;;13.80;;
26906;SDS011;14472;56.880;16.658;2024-03-02T07:03:03;24.10;;;13.53;;
26906;SDS011;14472;56.880;16.658;2024-03-02T07:05:29;27.40;;;11.77;;
26906;SDS011;14472;56.880;16.658;2024-03-02T07:07:55;28.20;;;14.13;;
26906;SDS011;14472;56.880;16.658;2024-03-02T07:10:20;33.13;;;16.77;;
26906;SDS011;14472;56.880;16.658;2024-03-02T07:12:46;29.03;;;14.00;;
26906;SDS011;14472;56.880;16.658;2024-03-02T07:15:12;35.07;;;15.27;;
26906;SDS011;14472;56.880;16.658;2024-03-02T07:17:54;30.33;;;13.47;;
26906;SDS011;14472;56.880;16.658;2024-03-02T07:20:20;32.27;;;15.73;;
26906;SDS011;14472;56.880;16.658;2024-03-02T07:22:46;34.80;;;15.73;;
26906;SDS011;14472;56.880;16.658;2024-03-02T07:25:12;33.30;;;14.23;;
26906;SDS011;14472;56.880;16.658;2024-03-02T07:27:38;29.40;;;12.97;;
26906;SDS011;14472;56.880;16.658;2024-03-02T07:30:04;29.90;;;13.87;;
26906;SDS011;14472;56.880;16.658;2024-03-02T07:32:30;27.93;;;14.20;;
26906;SDS011;14472;56.880;16.658;2024-03-02T07:34:56;28.67;;;16.73;;
26906;SDS011;14472;56.880;16.658;2024-03-02T07:37:22;26.80;;;13.93;;
26906;SDS011;14472;56.880;16.658;2024-03-02T07:39:49;35.40;;;14.90;;
26906;SDS011;14472;56.880;16.658;2024-03-02T07:42:15;31.33;;;13.83;;
26906;SDS011;14472;56.880;16.658;2024-03-02T07:44:41;31.13;;;13.47;;
26906;SDS011;14472;56.880;16.658;2024-03-02T07:47:09;30.37;;;14.27;;
26906;SDS011;14472;56.880;16.658;2024-03-02T07:49:34;32.70;;;16.17;;
26906;SDS011;14472;56.880;16.658;2024-03-02T07:52:00;25.50;;;13.10;;
26906;SDS011;14472;56.880;16.658;2024-03-02T07:54:26;26.73;;;12.10;;
26906;SDS011;14472;56.880;16.658;2024-03-02T07:56:51;26.63;;;12.80;;
26906;SDS011;14472;56.880;16.658;2024-03-02T07:59:17;28.87;;;13.97;;
26906;SDS011;14472;56.880;16.658;2024-03-02T08:01:43;30.90;;;13.17;;
26906;SDS011;14472;56.880;16.658;2024-03-02T08:04:09;23.67;;;11.53;;
26906;SDS011;14472;56.880;16.658;2024-03-02T08:06:34;28.07;;;11.90;;
26906;SDS011;14472;56.880;16.658;2024-03-02T08:09:00;27.70;;;12.83;;
26906;SDS011;14472;56.880;16.658;2024-03-02T08:11:26;22.93;;;11.97;;
26906;SDS011;14472;56.880;16.658;2024-03-02T08:13:53;22.03;;;11.30;;
26906;SDS011;14472;56.880;16.658;2024-03-02T08:16:20;27.20;;;12.53;;
26906;SDS011;14472;56.880;16.658;2024-03-02T08:18:48;21.40;;;10.50;;
26906;SDS011;14472;56.880;16.658;2024-03-02T08:21:14;22.30;;;12.13;;
26906;SDS011;14472;56.880;16.658;2024-03-02T08:23:41;19.27;;;11.57;;
26906;SDS011;14472;56.880;16.658;2024-03-02T08:26:11;22.00;;;10.03;;
26906;SDS011;14472;56.880;16.658;2024-03-02T08:28:37;18.20;;;9.87;;
26906;SDS011;14472;56.880;16.658;2024-03-02T08:31:03;22.20;;;11.50;;
26906;SDS011;14472;56.880;16.658;2024-03-02T08:33:29;23.77;;;12.17;;
26906;SDS011;14472;56.880;16.658;2024-03-02T08:35:55;19.07;;;10.40;;
26906;SDS011;14472;56.880;16.658;2024-03-02T08:38:23;21.20;;;11.70;;
26906;SDS011;14472;56.880;16.658;2024-03-02T08:40:49;19.83;;;11.37;;
26906;SDS011;14472;56.880;16.658;2024-03-02T08:43:15;23.17;;;12.20;;
26906;SDS011;14472;56.880;16.658;2024-03-02T08:45:41;24.43;;;11.93;;
26906;SDS011;14472;56.880;16.658;2024-03-02T08:48:07;26.73;;;11.87;;
26906;SDS011;14472;56.880;16.658;2024-03-02T08:50:36;22.30;;;11.70;;
26906;SDS011;14472;56.880;16.658;2024-03-02T08:53:03;24.17;;;10.80;;
26906;SDS011;14472;56.880;16.658;2024-03-02T08:55:29;21.10;;;11.27;;
26906;SDS011;14472;56.880;16.658;2024-03-02T08:57:55;22.50;;;12.50;;
26906;SDS011;14472;56.880;16.658;2024-03-02T09:00:21;25.13;;;12.07;;
26906;SDS011;14472;56.880;16.658;2024-03-02T09:02:47;20.90;;;11.30;;
26906;SDS011;14472;56.880;16.658;2024-03-02T09:05:13;27.43;;;11.50;;
26906;SDS011;14472;56.880;16.658;2024-03-02T09:07:38;25.90;;;11.17;;
26906;SDS011;14472;56.880;16.658;2024-03-02T09:10:05;25.70;;;12.07;;
26906;SDS011;14472;56.880;16.658;2024-03-02T09:12:31;27.07;;;12.03;;
26906;SDS011;14472;56.880;16.658;2024-03-02T09:14:57;26.37;;;11.37;;
26906;SDS011;14472;56.880;16.658;2024-03-02T09:17:23;22.63;;;11.17;;
26906;SDS011;14472;56.880;16.658;2024-03-02T09:19:49;26.43;;;12.30;;
26906;SDS011;14472;56.880;16.658;2024-03-02T09:22:17;22.23;;;11.40;;
26906;SDS011;14472;56.880;16.658;2024-03-02T09:24:43;22.20;;;12.20;;
26906;SDS011;14472;56.880;16.658;2024-03-02T09:27:09;22.67;;;11.00;;
26906;SDS011;14472;56.880;16.658;2024-03-02T09:29:35;26.43;;;12.00;;
26906;SDS011;14472;56.880;16.658;2024-03-02T09:32:01;24.27;;;11.77;;
26906;SDS011;14472;56.880;16.658;2024-03-02T09:34:27;23.53;;;11.50;;
26906;SDS011;14472;56.880;16.658;2024-03-02T09:36:53;23.60;;;12.07;;
26906;SDS011;14472;56.880;16.658;2024-03-02T09:39:18;23.00;;;11.60;;
26906;SDS011;14472;56.880;16.658;2024-03-02T09:41:45;21.60;;;11.90;;
26906;SDS011;14472;56.880;16.658;2024-03-02T09:44:11;23.07;;;11.37;;
26906;SDS011;14472;56.880;16.658;2024-03-02T09:46:37;25.90;;;12.03;;
26906;SDS011;14472;56.880;16.658;2024-03-02T09:49:03;19.93;;;11.37;;
26906;SDS011;14472;56.880;16.658;2024-03-02T09:51:29;22.93;;;12.40;;
26906;SDS011;14472;56.880;16.658;2024-03-02T09:53:56;24.33;;;11.37;;
26906;SDS011;14472;56.880;16.658;2024-03-02T09:56:22;22.93;;;10.93;;
26906;SDS011;14472;56.880;16.658;2024-03-02T09:58:48;24.23;;;12.13;;
26906;SDS011;14472;56.880;16.658;2024-03-02T10:01:13;25.23;;;12.33;;
26906;SDS011;14472;56.880;16.658;2024-03-02T10:03:39;24.07;;;13.20;;
26906;SDS011;14472;56.880;16.658;2024-03-02T10:06:24;23.93;;;11.43;;
26906;SDS011;14472;56.880;16.658;2024-03-02T10:08:51;26.77;;;12.67;;
26906;SDS011;14472;56.880;16.658;2024-03-02T10:11:31;27.50;;;12.30;;
26906;SDS011;14472;56.880;16.658;2024-03-02T10:14:09;27.50;;;12.97;;
26906;SDS011;14472;56.880;16.658;2024-03-02T10:16:36;23.13;;;12.07;;
26906;SDS011;14472;56.880;16.658;2024-03-02T10:19:15;28.90;;;12.97;;
26906;SDS011;14472;56.880;16.658;2024-03-02T10:21:48;22.77;;;12.63;;
26906;SDS011;14472;56.880;16.658;2024-03-02T10:24:18;25.50;;;11.77;;
26906;SDS011;14472;56.880;16.658;2024-03-02T10:26:45;23.90;;;13.67;;
26906;SDS011;14472;56.880;16.658;2024-03-02T10:29:11;23.23;;;12.67;;
26906;SDS011;14472;56.880;16.658;2024-03-02T10:31:39;26.27;;;12.77;;
26906;SDS011;14472;56.880;16.658;2024-03-02T10:34:06;28.30;;;13.13;;
26906;SDS011;14472;56.880;16.658;2024-03-02T10:36:35;28.33;;;13.53;;
26906;SDS011;14472;56.880;16.658;2024-03-02T10:39:05;24.97;;;12.63;;
26906;SDS011;14472;56.880;16.658;2024-03-02T10:41:32;25.20;;;13.13;;
26906;SDS011;14472;56.880;16.658;2024-03-02T10:44:03;28.70;;;13.43;;
26906;SDS011;14472;56.880;16.658;2024-03-02T10:46:30;27.30;;;12.67;;
26906;SDS011;14472;56.880;16.658;2024-03-02T10:48:58;21.90;;;12.80;;
26906;SDS011;14472;56.880;16.658;2024-03-02T10:51:25;27.47;;;13.20;;
26906;SDS011;14472;56.880;16.658;2024-03-02T10:53:54;27.97;;;14.03;;
26906;SDS011;14472;56.880;16.658;2024-03-02T10:56:53;26.13;;;14.00;;
26906;SDS011;14472;56.880;16.658;2024-03-02T11:02:08;31.27;;;14.50;;
26906;SDS011;14472;56.880;16.658;2024-03-02T11:04:37;30.43;;;14.30;;
26906;SDS011;14472;56.880;16.658;2024-03-02T11:07:09;28.10;;;13.93;;
26906;SDS011;14472;56.880;16.658;2024-03-02T11:09:40;30.13;;;15.00;;
26906;SDS011;14472;56.880;16.658;2024-03-02T11:12:13;32.93;;;16.50;;
26906;SDS011;14472;56.880;16.658;2024-03-02T11:14:47;41.43;;;17.40;;
26906;SDS011;14472;56.880;16.658;2024-03-02T11:17:16;26.00;;;16.53;;
26906;SDS011;14472;56.880;16.658;2024-03-02T11:19:43;26.63;;;13.33;;
26906;SDS011;14472;56.880;16.658;2024-03-02T11:22:13;34.17;;;15.97;;
26906;SDS011;14472;56.880;16.658;2024-03-02T11:24:47;33.70;;;17.83;;
26906;SDS011;14472;56.880;16.658;2024-03-02T11:30:38;26.67;;;14.07;;
26906;SDS011;14472;56.880;16.658;2024-03-02T11:32:59;25.93;;;12.73;;
26906;SDS011;14472;56.880;16.658;2024-03-02T11:35:25;25.83;;;13.93;;
26906;SDS011;14472;56.880;16.658;2024-03-02T11:37:54;29.73;;;13.77;;
26906;SDS011;14472;56.880;16.658;2024-03-02T11:40:24;27.93;;;13.83;;
26906;SDS011;14472;56.880;16.658;2024-03-02T11:42:50;28.00;;;13.30;;
26906;SDS011;14472;56.880;16.658;2024-03-02T11:45:16;26.43;;;13.47;;
26906;SDS011;14472;56.880;16.658;2024-03-02T11:47:46;28.97;;;14.27;;
26906;SDS011;14472;56.880;16.658;2024-03-02T11:50:28;31.17;;;13.43;;
26906;SDS011;14472;56.880;16.658;2024-03-02T11:52:55;27.10;;;12.23;;
26906;SDS011;14472;56.880;16.658;2024-03-02T11:55:23;27.40;;;12.83;;
26906;SDS011;14472;56.880;16.658;2024-03-02T11:57:51;24.43;;;12.80;;
26906;SDS011;14472;56.880;16.658;2024-03-02T12:00:18;26.67;;;13.77;;
26906;SDS011;14472;56.880;16.658;2024-03-02T12:02:45;27.17;;;13.10;;
26906;SDS011;14472;56.880;16.658;2024-03-02T12:05:14;27.50;;;13.10;;
26906;SDS011;14472;56.880;16.658;2024-03-02T12:07:44;23.83;;;12.97;;
26906;SDS011;14472;56.880;16.658;2024-03-02T12:10:11;26.50;;;13.87;;
26906;SDS011;14472;56.880;16.658;2024-03-02T12:12:37;28.27;;;14.13;;
26906;SDS011;14472;56.880;16.658;2024-03-02T12:15:03;21.73;;;12.40;;
26906;SDS011;14472;56.880;16.658;2024-03-02T12:17:29;20.37;;;12.10;;
26906;SDS011;14472;56.880;16.658;2024-03-02T12:19:55;31.07;;;14.07;;
26906;SDS011;14472;56.880;16.658;2024-03-02T12:22:21;27.40;;;12.77;;
26906;SDS011;14472;56.880;16.658;2024-03-02T12:24:46;20.63;;;11.70;;
26906;SDS011;14472;56.880;16.658;2024-03-02T12:27:13;23.43;;;12.77;;
26906;SDS011;14472;56.880;16.658;2024-03-02T12:29:40;23.53;;;13.23;;
26906;SDS011;14472;56.880;16.658;2024-03-02T12:32:06;24.50;;;13.17;;
26906;SDS011;14472;56.880;16.658;2024-03-02T12:34:32;24.67;;;11.57;;
26906;SDS011;14472;56.880;16.658;2024-03-02T12:36:58;21.07;;;12.27;;
26906;SDS011;14472;56.880;16.658;2024-03-02T12:39:24;18.87;;;12.20;;
26906;SDS011;14472;56.880;16.658;2024-03-02T12:41:50;24.77;;;12.10;;
26906;SDS011;14472;56.880;16.658;2024-03-02T12:44:17;21.90;;;11.60;;
26906;SDS011;14472;56.880;16.658;2024-03-02T12:46:45;26.23;;;12.77;;
26906;SDS011;14472;56.880;16.658;2024-03-02T12:49:12;29.90;;;13.07;;
26906;SDS011;14472;56.880;16.658;2024-03-02T12:51:41;23.67;;;12.90;;
26906;SDS011;14472;56.880;16.658;2024-03-02T12:54:08;24.97;;;12.37;;
26906;SDS011;14472;56.880;16.658;2024-03-02T12:56:37;26.50;;;13.33;;
26906;SDS011;14472;56.880;16.658;2024-03-02T12:59:04;27.13;;;13.93;;
26906;SDS011;14472;56.880;16.658;2024-03-02T13:01:30;25.80;;;14.50;;
26906;SDS011;14472;56.880;16.658;2024-03-02T13:03:57;30.63;;;13.83;;
26906;SDS011;14472;56.880;16.658;2024-03-02T13:06:23;24.13;;;14.07;;
26906;SDS011;14472;56.880;16.658;2024-03-02T13:08:52;25.10;;;14.07;;
26906;SDS011;14472;56.880;16.658;2024-03-02T13:11:18;27.80;;;12.83;;
26906;SDS011;14472;56.880;16.658;2024-03-02T13:13:45;22.77;;;13.30;;
26906;SDS011;14472;56.880;16.658;2024-03-02T13:16:12;26.13;;;12.30;;
26906;SDS011;14472;56.880;16.658;2024-03-02T13:18:39;23.93;;;13.57;;
26906;SDS011;14472;56.880;16.658;2024-03-02T13:21:05;26.23;;;12.07;;
26906;SDS011;14472;56.880;16.658;2024-03-02T13:23:32;26.30;;;14.67;;
26906;SDS011;14472;56.880;16.658;2024-03-02T13:25:58;30.17;;;14.60;;
26906;SDS011;14472;56.880;16.658;2024-03-02T13:28:27;23.67;;;13.33;;
26906;SDS011;14472;56.880;16.658;2024-03-02T13:30:53;27.07;;;13.40;;
26906;SDS011;14472;56.880;16.658;2024-03-02T13:33:18;26.77;;;13.60;;
26906;SDS011;14472;56.880;16.658;2024-03-02T13:35:48;25.07;;;14.30;;
26906;SDS011;14472;56.880;16.658;2024-03-02T13:38:15;24.77;;;12.77;;
26906;SDS011;14472;56.880;16.658;2024-03-02T13:40:45;22.97;;;12.93;;
26906;SDS011;14472;56.880;16.658;2024-03-02T13:43:11;29.90;;;13.73;;
26906;SDS011;14472;56.880;16.658;2024-03-02T13:45:40;24.17;;;11.63;;
26906;SDS011;14472;56.880;16.658;2024-03-02T13:48:06;27.83;;;13.50;;
26906;SDS011;14472;56.880;16.658;2024-03-02T13:50:32;23.47;;;13.10;;
26906;SDS011;14472;56.880;16.658;2024-03-02T13:52:58;23.70;;;12.50;;
26906;SDS011;14472;56.880;16.658;2024-03-02T13:55:24;24.53;;;13.77;;
26906;SDS011;14472;56.880;16.658;2024-03-02T13:57:49;26.33;;;13.77;;
26906;SDS011;14472;56.880;16.658;2024-03-02T14:00:16;25.60;;;13.50;;
26906;SDS011;14472;56.880;16.658;2024-03-02T14:02:42;22.93;;;12.37;;
26906;SDS011;14472;56.880;16.658;2024-03-02T14:05:08;26.57;;;14.13;;
26906;SDS011;14472;56.880;16.658;2024-03-02T14:07:40;23.13;;;12.93;;
26906;SDS011;14472;56.880;16.658;2024-03-02T14:10:06;26.77;;;13.00;;
26906;SDS011;14472;56.880;16.658;2024-03-02T14:12:32;23.90;;;11.67;;
26906;SDS011;14472;56.880;16.658;2024-03-02T14:14:58;21.93;;;11.47;;
26906;SDS011;14472;56.880;16.658;2024-03-02T14:17:26;20.97;;;11.80;;